createdAt,value
2017-06-05T00:00:36.749Z,0
2017-06-05T00:01:36.740Z,0
2017-06-05T00:02:37.044Z,0
2017-06-05T00:03:36.402Z,0
2017-06-05T00:04:36.705Z,0
2017-06-05T00:05:37.090Z,0
2017-06-05T00:06:36.357Z,0
2017-06-05T00:07:36.672Z,0
2017-06-05T00:08:36.966Z,0
2017-06-05T00:09:36.637Z,0
2017-06-05T00:10:35.984Z,0
2017-06-05T00:11:36.287Z,0
2017-06-05T00:12:36.277Z,0
2017-06-05T00:13:36.893Z,0
2017-06-05T00:14:36.579Z,0
2017-06-05T00:15:36.548Z,0
2017-06-05T00:16:36.254Z,0
2017-06-05T00:17:36.206Z,0
2017-06-05T00:18:36.513Z,0
2017-06-05T00:19:36.506Z,0
2017-06-05T00:20:36.163Z,0
2017-06-05T00:21:36.354Z,0
2017-06-05T00:22:36.457Z,0
2017-06-05T00:23:36.753Z,0
2017-06-05T00:24:36.430Z,0
2017-06-05T00:25:36.100Z,0
2017-06-05T00:26:36.718Z,0
2017-06-05T00:27:36.704Z,0
2017-06-05T00:28:36.379Z,0
2017-06-05T00:29:36.046Z,0
2017-06-05T00:30:36.350Z,0
2017-06-05T00:31:36.367Z,0
2017-06-05T00:32:36.641Z,0
2017-06-05T00:33:36.374Z,0
2017-06-05T00:34:35.976Z,0
2017-06-05T00:35:35.965Z,0
2017-06-05T00:36:36.276Z,0
2017-06-05T00:37:36.253Z,0
2017-06-05T00:38:35.933Z,0
2017-06-05T00:39:35.912Z,0
2017-06-05T00:40:35.583Z,0
2017-06-05T00:41:36.196Z,0
2017-06-05T00:42:36.503Z,0
2017-06-05T00:43:35.544Z,0
2017-06-05T00:44:35.882Z,0
2017-06-05T00:45:36.143Z,0
2017-06-05T00:46:36.132Z,0
2017-06-05T00:47:35.801Z,0
2017-06-05T00:48:35.791Z,0
2017-06-05T00:49:35.461Z,0
2017-06-05T00:50:36.076Z,0
2017-06-05T00:51:35.752Z,0
2017-06-05T00:52:36.357Z,0
2017-06-05T00:53:36.036Z,0
2017-06-05T00:54:35.423Z,0
2017-06-05T00:55:36.007Z,0
2017-06-05T00:56:35.372Z,0
2017-06-05T00:57:35.666Z,0
2017-06-05T00:58:35.977Z,0
2017-06-05T00:59:35.322Z,0
2017-06-05T01:00:35.939Z,0
2017-06-05T01:01:35.612Z,0
2017-06-05T01:02:35.916Z,0
2017-06-05T01:03:35.584Z,0
2017-06-05T01:04:35.882Z,0
2017-06-05T01:05:35.558Z,0
2017-06-05T01:06:35.855Z,0
2017-06-05T01:07:36.163Z,0
2017-06-05T01:08:35.880Z,0
2017-06-05T01:09:35.816Z,0
2017-06-05T01:10:36.164Z,0
2017-06-05T01:11:36.105Z,0
2017-06-05T01:12:35.806Z,0
2017-06-05T01:13:35.764Z,0
2017-06-05T01:14:35.745Z,0
2017-06-05T01:15:36.067Z,0
2017-06-05T01:16:35.717Z,0
2017-06-05T01:17:35.394Z,0
2017-06-05T01:18:35.371Z,0
2017-06-05T01:19:35.682Z,0
2017-06-05T01:20:35.661Z,0
2017-06-05T01:21:35.652Z,0
2017-06-05T01:22:35.955Z,0
2017-06-05T01:23:35.937Z,0
2017-06-05T01:24:35.607Z,0
2017-06-05T01:25:34.966Z,0
2017-06-05T01:26:34.952Z,0
2017-06-05T01:27:35.566Z,0
2017-06-05T01:28:35.238Z,0
2017-06-05T01:29:35.229Z,0
2017-06-05T01:30:35.522Z,0
2017-06-05T01:31:35.194Z,0
2017-06-05T01:32:35.184Z,0
2017-06-05T01:33:35.794Z,0
2017-06-05T01:34:34.837Z,0
2017-06-05T01:35:35.455Z,0
2017-06-05T01:36:34.806Z,0
2017-06-05T01:37:35.113Z,0
2017-06-05T01:38:35.726Z,0
2017-06-05T01:39:35.084Z,0
2017-06-05T01:40:35.385Z,0
2017-06-05T01:41:34.735Z,0
2017-06-05T01:42:35.351Z,0
2017-06-05T01:43:35.341Z,0
2017-06-05T01:44:35.056Z,0
2017-06-05T01:45:35.317Z,0
2017-06-05T01:46:35.613Z,0
2017-06-05T01:47:35.283Z,0
2017-06-05T01:48:35.269Z,0
2017-06-05T01:49:35.257Z,0
2017-06-05T01:50:35.236Z,0
2017-06-05T01:51:35.540Z,0
2017-06-05T01:52:35.209Z,0
2017-06-05T01:53:35.194Z,0
2017-06-05T01:54:35.185Z,0
2017-06-05T01:55:34.852Z,0
2017-06-05T01:56:34.835Z,0
2017-06-05T01:57:35.452Z,0
2017-06-05T01:58:35.477Z,0
2017-06-05T01:59:34.795Z,0
2017-06-05T02:00:35.093Z,0
2017-06-05T02:01:35.393Z,0
2017-06-05T02:02:34.757Z,0
2017-06-05T02:03:34.747Z,0
2017-06-05T02:04:35.041Z,0
2017-06-05T02:05:35.018Z,0
2017-06-05T02:06:34.705Z,0
2017-06-05T02:07:34.998Z,0
2017-06-05T02:08:34.665Z,0
2017-06-05T02:09:34.650Z,0
2017-06-05T02:10:34.640Z,0
2017-06-05T02:11:35.247Z,0
2017-06-05T02:12:34.926Z,0
2017-06-05T02:13:34.961Z,0
2017-06-05T02:14:35.205Z,0
2017-06-05T02:15:34.570Z,0
2017-06-05T02:16:35.194Z,0
2017-06-05T02:17:34.870Z,0
2017-06-05T02:18:34.841Z,0
2017-06-05T02:19:35.140Z,0
2017-06-05T02:20:34.802Z,0
2017-06-05T02:21:34.992Z,0
2017-06-05T02:22:34.145Z,0
2017-06-05T02:23:34.764Z,0
2017-06-05T02:24:34.755Z,0
2017-06-05T02:25:34.469Z,0
2017-06-05T02:26:34.715Z,0
2017-06-05T02:27:34.394Z,0
2017-06-05T02:28:34.377Z,0
2017-06-05T02:29:34.676Z,0
2017-06-05T02:30:34.342Z,0
2017-06-05T02:31:34.643Z,0
2017-06-05T02:32:34.945Z,0
2017-06-05T02:33:34.615Z,4
2017-06-05T02:34:33.982Z,4
2017-06-05T02:35:34.904Z,0
2017-06-05T02:36:34.890Z,0
2017-06-05T02:37:34.562Z,0
2017-06-05T02:38:34.231Z,4
2017-06-05T02:39:34.535Z,4
2017-06-05T02:40:34.518Z,0
2017-06-05T02:41:34.185Z,4
2017-06-05T02:42:34.803Z,4
2017-06-05T02:43:33.845Z,4
2017-06-05T02:44:34.772Z,4
2017-06-05T02:45:34.449Z,4
2017-06-05T02:46:34.432Z,4
2017-06-05T02:47:34.099Z,8
2017-06-05T02:48:34.090Z,8
2017-06-05T02:49:34.386Z,8
2017-06-05T02:50:34.371Z,8
2017-06-05T02:51:34.039Z,8
2017-06-05T02:52:34.655Z,8
2017-06-05T02:53:34.336Z,12
2017-06-05T02:54:34.623Z,12
2017-06-05T02:55:34.298Z,12
2017-06-05T02:56:34.285Z,16
2017-06-05T02:57:34.270Z,20
2017-06-05T02:58:34.264Z,20
2017-06-05T02:59:34.256Z,24
2017-06-05T03:00:33.912Z,28
2017-06-05T03:01:33.891Z,32
2017-06-05T03:02:33.884Z,32
2017-06-05T03:03:33.557Z,36
2017-06-05T03:04:33.853Z,40
2017-06-05T03:05:34.154Z,44
2017-06-05T03:06:34.456Z,48
2017-06-05T03:07:34.126Z,56
2017-06-05T03:08:34.112Z,60
2017-06-05T03:09:33.802Z,68
2017-06-05T03:10:34.076Z,72
2017-06-05T03:11:34.413Z,80
2017-06-05T03:12:34.106Z,84
2017-06-05T03:13:34.030Z,92
2017-06-05T03:14:34.023Z,96
2017-06-05T03:15:34.000Z,104
2017-06-05T03:16:34.311Z,112
2017-06-05T03:17:33.659Z,120
2017-06-05T03:18:33.963Z,132
2017-06-05T03:19:33.949Z,140
2017-06-05T03:20:33.616Z,144
2017-06-05T03:21:33.914Z,156
2017-06-05T03:22:33.898Z,164
2017-06-05T03:23:33.888Z,176
2017-06-05T03:24:33.585Z,184
2017-06-05T03:25:34.183Z,196
2017-06-05T03:26:33.530Z,208
2017-06-05T03:27:33.827Z,220
2017-06-05T03:28:33.817Z,232
2017-06-05T03:29:33.480Z,244
2017-06-05T03:30:33.474Z,252
2017-06-05T03:31:33.773Z,264
2017-06-05T03:32:33.132Z,272
2017-06-05T03:33:33.487Z,288
2017-06-05T03:34:34.039Z,300
2017-06-05T03:35:34.020Z,312
2017-06-05T03:36:34.011Z,328
2017-06-05T03:37:33.735Z,344
2017-06-05T03:38:33.349Z,360
2017-06-05T03:39:33.653Z,372
2017-06-05T03:40:33.949Z,392
2017-06-05T03:41:33.312Z,404
2017-06-05T03:42:33.293Z,424
2017-06-05T03:43:33.285Z,440
2017-06-05T03:44:33.887Z,464
2017-06-05T03:45:33.561Z,492
2017-06-05T03:46:33.262Z,516
2017-06-05T03:47:33.543Z,552
2017-06-05T03:48:33.210Z,584
2017-06-05T03:49:33.500Z,612
2017-06-05T03:50:33.497Z,640
2017-06-05T03:51:33.513Z,660
2017-06-05T03:52:33.460Z,676
2017-06-05T03:53:33.769Z,688
2017-06-05T03:54:33.114Z,708
2017-06-05T03:55:33.482Z,724
2017-06-05T03:56:33.428Z,740
2017-06-05T03:57:33.438Z,752
2017-06-05T03:58:33.695Z,776
2017-06-05T03:59:33.359Z,800
2017-06-05T04:00:33.353Z,832
2017-06-05T04:01:33.351Z,872
2017-06-05T04:02:33.318Z,916
2017-06-05T04:03:33.618Z,960
2017-06-05T04:04:33.602Z,1000
2017-06-05T04:05:32.650Z,1040
2017-06-05T04:06:32.941Z,1084
2017-06-05T04:07:33.252Z,1128
2017-06-05T04:08:33.544Z,1172
2017-06-05T04:09:33.531Z,1212
2017-06-05T04:10:32.570Z,1248
2017-06-05T04:11:33.511Z,1276
2017-06-05T04:12:32.859Z,1300
2017-06-05T04:13:32.845Z,1324
2017-06-05T04:14:33.149Z,1348
2017-06-05T04:15:33.451Z,1368
2017-06-05T04:16:33.164Z,1388
2017-06-05T04:17:32.798Z,1412
2017-06-05T04:18:32.777Z,1444
2017-06-05T04:19:33.071Z,1476
2017-06-05T04:20:33.068Z,1508
2017-06-05T04:21:33.271Z,1548
2017-06-05T04:22:32.440Z,1588
2017-06-05T04:23:33.023Z,1636
2017-06-05T04:24:32.702Z,1684
2017-06-05T04:25:33.008Z,1740
2017-06-05T04:26:32.666Z,1796
2017-06-05T04:27:32.968Z,1852
2017-06-05T04:28:33.257Z,1904
2017-06-05T04:29:32.929Z,1960
2017-06-05T04:30:33.228Z,1996
2017-06-05T04:31:33.219Z,2020
2017-06-05T04:32:32.571Z,2032
2017-06-05T04:33:32.566Z,2044
2017-06-05T04:34:32.885Z,2052
2017-06-05T04:35:32.851Z,2060
2017-06-05T04:36:32.210Z,2068
2017-06-05T04:37:32.506Z,2084
2017-06-05T04:38:32.492Z,2112
2017-06-05T04:39:32.793Z,2156
2017-06-05T04:40:33.098Z,2208
2017-06-05T04:41:32.765Z,2272
2017-06-05T04:42:32.757Z,2344
2017-06-05T04:43:32.484Z,2408
2017-06-05T04:44:33.035Z,2448
2017-06-05T04:45:33.022Z,2484
2017-06-05T04:46:33.007Z,2520
2017-06-05T04:47:32.679Z,2560
2017-06-05T04:48:32.388Z,2604
2017-06-05T04:49:32.968Z,2636
2017-06-05T04:50:32.949Z,2668
2017-06-05T04:51:32.941Z,2684
2017-06-05T04:52:32.303Z,2684
2017-06-05T04:53:32.594Z,2672
2017-06-05T04:54:32.607Z,2664
2017-06-05T04:55:32.574Z,2668
2017-06-05T04:56:32.243Z,2688
2017-06-05T04:57:32.542Z,2712
2017-06-05T04:58:32.223Z,2756
2017-06-05T04:59:32.212Z,2812
2017-06-05T05:00:32.507Z,2860
2017-06-05T05:01:32.177Z,2888
2017-06-05T05:02:32.488Z,2932
2017-06-05T05:03:32.783Z,2980
2017-06-05T05:04:32.148Z,3032
2017-06-05T05:05:32.134Z,3100
2017-06-05T05:06:32.749Z,3172
2017-06-05T05:07:32.113Z,3244
2017-06-05T05:08:32.399Z,3324
2017-06-05T05:09:32.387Z,3400
2017-06-05T05:10:32.380Z,3488
2017-06-05T05:11:32.051Z,3576
2017-06-05T05:12:32.036Z,3640
2017-06-05T05:13:32.039Z,3672
2017-06-05T05:14:32.326Z,3680
2017-06-05T05:15:32.306Z,3700
2017-06-05T05:16:32.608Z,3720
2017-06-05T05:17:31.967Z,3740
2017-06-05T05:18:32.271Z,3760
2017-06-05T05:19:32.568Z,3784
2017-06-05T05:20:31.926Z,3812
2017-06-05T05:21:32.548Z,3864
2017-06-05T05:22:32.223Z,3936
2017-06-05T05:23:31.573Z,4012
2017-06-05T05:24:32.514Z,4068
2017-06-05T05:25:32.182Z,4096
2017-06-05T05:26:32.158Z,4112
2017-06-05T05:27:31.525Z,4124
2017-06-05T05:28:31.833Z,4132
2017-06-05T05:29:32.130Z,4156
2017-06-05T05:30:32.117Z,4196
2017-06-05T05:31:32.410Z,4224
2017-06-05T05:32:32.088Z,4248
2017-06-05T05:33:32.077Z,4252
2017-06-05T05:34:31.744Z,4248
2017-06-05T05:35:31.738Z,4240
2017-06-05T05:36:32.034Z,4236
2017-06-05T05:37:32.018Z,4228
2017-06-05T05:38:31.701Z,4236
2017-06-05T05:39:32.040Z,4256
2017-06-05T05:40:31.671Z,4268
2017-06-05T05:41:32.286Z,4280
2017-06-05T05:42:31.377Z,4320
2017-06-05T05:43:31.324Z,4364
2017-06-05T05:44:31.939Z,4432
2017-06-05T05:45:31.918Z,4484
2017-06-05T05:46:31.916Z,4540
2017-06-05T05:47:31.587Z,4592
2017-06-05T05:48:32.200Z,4592
2017-06-05T05:49:31.560Z,4556
2017-06-05T05:50:31.878Z,4520
2017-06-05T05:51:31.856Z,4528
2017-06-05T05:52:32.154Z,4572
2017-06-05T05:53:31.840Z,4628
2017-06-05T05:54:32.134Z,4580
2017-06-05T05:55:31.809Z,4448
2017-06-05T05:56:31.792Z,4496
2017-06-05T05:57:31.463Z,4424
2017-06-05T05:58:32.085Z,4372
2017-06-05T05:59:31.765Z,4368
2017-06-05T06:00:31.428Z,4356
2017-06-05T06:01:31.732Z,4328
2017-06-05T06:02:31.722Z,4320
2017-06-05T06:03:31.716Z,4324
2017-06-05T06:04:32.013Z,4356
2017-06-05T06:05:32.006Z,4416
2017-06-05T06:06:31.366Z,4456
2017-06-05T06:07:31.349Z,4472
2017-06-05T06:08:31.022Z,4436
2017-06-05T06:09:31.326Z,4376
2017-06-05T06:10:31.316Z,4316
2017-06-05T06:11:31.609Z,4400
2017-06-05T06:12:31.609Z,4576
2017-06-05T06:13:31.602Z,4744
2017-06-05T06:14:31.902Z,4780
2017-06-05T06:15:31.877Z,4900
2017-06-05T06:16:31.247Z,5020
2017-06-05T06:17:31.239Z,5244
2017-06-05T06:18:31.230Z,5572
2017-06-05T06:19:31.210Z,5892
2017-06-05T06:20:31.830Z,6288
2017-06-05T06:21:32.018Z,5632
2017-06-05T06:22:30.862Z,5048
2017-06-05T06:23:31.822Z,4948
2017-06-05T06:24:31.499Z,4912
2017-06-05T06:25:31.460Z,4836
2017-06-05T06:26:31.139Z,4768
2017-06-05T06:27:30.808Z,4740
2017-06-05T06:28:31.114Z,4684
2017-06-05T06:29:31.420Z,4660
2017-06-05T06:30:31.402Z,4620
2017-06-05T06:31:31.393Z,4568
2017-06-05T06:32:31.065Z,4552
2017-06-05T06:33:31.369Z,4584
2017-06-05T06:34:31.675Z,4532
2017-06-05T06:35:31.656Z,4536
2017-06-05T06:36:31.659Z,4460
2017-06-05T06:37:31.351Z,4444
2017-06-05T06:38:31.641Z,4456
2017-06-05T06:39:31.317Z,4484
2017-06-05T06:40:31.285Z,4480
2017-06-05T06:41:30.965Z,4540
2017-06-05T06:42:31.581Z,4592
2017-06-05T06:43:30.947Z,4892
2017-06-05T06:44:30.931Z,6620
2017-06-05T06:45:30.918Z,9352
2017-06-05T06:46:30.909Z,11044
2017-06-05T06:47:31.535Z,14180
2017-06-05T06:48:31.569Z,16736
2017-06-05T06:49:31.202Z,17184
2017-06-05T06:50:31.189Z,17248
2017-06-05T06:51:30.861Z,15008
2017-06-05T06:52:31.170Z,10092
2017-06-05T06:53:31.163Z,6852
2017-06-05T06:54:31.145Z,5892
2017-06-05T06:55:30.821Z,5208
2017-06-05T06:56:30.811Z,5128
2017-06-05T06:57:30.805Z,5164
2017-06-05T06:58:31.108Z,5308
2017-06-05T06:59:30.792Z,5240
2017-06-05T07:00:31.399Z,5260
2017-06-05T07:01:31.065Z,5556
2017-06-05T07:02:31.056Z,5520
2017-06-05T07:03:31.051Z,5556
2017-06-05T07:04:31.355Z,5680
2017-06-05T07:05:30.720Z,5984
2017-06-05T07:06:31.018Z,6284
2017-06-05T07:07:31.018Z,6428
2017-06-05T07:08:31.316Z,7712
2017-06-05T07:09:31.307Z,14184
2017-06-05T07:10:30.979Z,21568
2017-06-05T07:11:30.351Z,29792
2017-06-05T07:12:31.277Z,30656
2017-06-05T07:13:30.957Z,33920
2017-06-05T07:14:31.265Z,30240
2017-06-05T07:15:30.307Z,30304
2017-06-05T07:16:30.317Z,26528
2017-06-05T07:17:31.251Z,27520
2017-06-05T07:18:31.235Z,28384
2017-06-05T07:19:30.909Z,27936
2017-06-05T07:20:30.911Z,29152
2017-06-05T07:21:30.591Z,31072
2017-06-05T07:22:30.889Z,28224
2017-06-05T07:23:31.211Z,24448
2017-06-05T07:24:30.250Z,21664
2017-06-05T07:25:31.188Z,21792
2017-06-05T07:26:30.867Z,21920
2017-06-05T07:27:30.554Z,20736
2017-06-05T07:28:30.856Z,23104
2017-06-05T07:29:31.251Z,22400
2017-06-05T07:30:30.862Z,26848
2017-06-05T07:31:30.566Z,26688
2017-06-05T07:32:30.517Z,27392
2017-06-05T07:33:30.826Z,27328
2017-06-05T07:34:30.729Z,26816
2017-06-05T07:35:30.843Z,24672
2017-06-05T07:36:30.513Z,23584
2017-06-05T07:37:31.125Z,24704
2017-06-05T07:38:31.134Z,27264
2017-06-05T07:39:30.799Z,25088
2017-06-05T07:40:30.472Z,26048
2017-06-05T07:41:30.471Z,26176
2017-06-05T07:42:30.486Z,31904
2017-06-05T07:43:31.089Z,33152
2017-06-05T07:44:31.071Z,31840
2017-06-05T07:45:31.069Z,30912
2017-06-05T07:46:30.121Z,27680
2017-06-05T07:47:30.119Z,27424
2017-06-05T07:48:31.072Z,25888
2017-06-05T07:49:31.047Z,28800
2017-06-05T07:50:30.732Z,30720
2017-06-05T07:51:30.724Z,33696
2017-06-05T07:52:31.034Z,35968
2017-06-05T07:53:30.765Z,33632
2017-06-05T07:54:30.400Z,29088
2017-06-05T07:55:30.480Z,33248
2017-06-05T07:56:30.733Z,32160
2017-06-05T07:57:30.378Z,33248
2017-06-05T07:58:30.705Z,34976
2017-06-05T07:59:31.001Z,34048
2017-06-05T08:00:30.372Z,32064
2017-06-05T08:01:30.682Z,30016
2017-06-05T08:02:30.678Z,30176
2017-06-05T08:03:30.674Z,32192
2017-06-05T08:04:30.351Z,29472
2017-06-05T08:05:30.667Z,31968
2017-06-05T08:06:30.976Z,37568
2017-06-05T08:07:30.664Z,35552
2017-06-05T08:08:30.339Z,34560
2017-06-05T08:09:30.336Z,32960
2017-06-05T08:10:30.643Z,32928
2017-06-05T08:11:30.327Z,33504
2017-06-05T08:12:30.639Z,37696
2017-06-05T08:13:30.636Z,37600
2017-06-05T08:14:30.627Z,40320
2017-06-05T08:15:30.942Z,38400
2017-06-05T08:16:30.943Z,36192
2017-06-05T08:17:30.308Z,35136
2017-06-05T08:18:30.650Z,32512
2017-06-05T08:19:30.616Z,30528
2017-06-05T08:20:30.349Z,27584
2017-06-05T08:21:31.336Z,28896
2017-06-05T08:22:30.290Z,29888
2017-06-05T08:23:30.292Z,30336
2017-06-05T08:24:30.286Z,29504
2017-06-05T08:25:30.596Z,28768
2017-06-05T08:26:30.591Z,27008
2017-06-05T08:27:30.276Z,27648
2017-06-05T08:28:30.579Z,25856
2017-06-05T08:29:30.276Z,27328
2017-06-05T08:30:30.264Z,30112
2017-06-05T08:31:30.572Z,31648
2017-06-05T08:32:30.260Z,36192
2017-06-05T08:33:30.559Z,39200
2017-06-05T08:34:30.245Z,42560
2017-06-05T08:35:30.610Z,41216
2017-06-05T08:36:30.558Z,39584
2017-06-05T08:37:30.555Z,39968
2017-06-05T08:38:30.551Z,36544
2017-06-05T08:39:30.860Z,40672
2017-06-05T08:40:30.542Z,48384
2017-06-05T08:41:30.222Z,51104
2017-06-05T08:42:29.907Z,57184
2017-06-05T08:43:30.534Z,54528
2017-06-05T08:44:30.254Z,50336
2017-06-05T08:45:30.531Z,49568
2017-06-05T08:46:30.227Z,49792
2017-06-05T08:47:30.841Z,51456
2017-06-05T08:48:30.211Z,54912
2017-06-05T08:49:30.535Z,59040
2017-06-05T08:50:30.250Z,34976
2017-06-05T08:51:30.516Z,31712
2017-06-05T08:52:30.832Z,21824
2017-06-05T08:53:30.198Z,16000
2017-06-05T08:54:30.515Z,14172
2017-06-05T08:55:30.833Z,13936
2017-06-05T08:56:30.824Z,14676
2017-06-05T08:57:30.509Z,20224
2017-06-05T08:58:29.873Z,27392
2017-06-05T08:59:30.536Z,21728
2017-06-05T09:00:30.186Z,14316
2017-06-05T09:01:30.202Z,12664
2017-06-05T09:02:30.802Z,12596
2017-06-05T09:03:30.810Z,12148
2017-06-05T09:04:30.795Z,11948
2017-06-05T09:05:30.479Z,12532
2017-06-05T09:06:30.470Z,12716
2017-06-05T09:07:30.785Z,13148
2017-06-05T09:08:30.181Z,15388
2017-06-05T09:09:30.466Z,16096
2017-06-05T09:10:30.146Z,16028
2017-06-05T09:11:30.769Z,37344
2017-06-05T09:12:30.454Z,47008
2017-06-05T09:13:30.770Z,50368
2017-06-05T09:14:30.456Z,49664
2017-06-05T09:15:30.441Z,47168
2017-06-05T09:16:30.440Z,50720
2017-06-05T09:17:30.433Z,51328
2017-06-05T09:18:30.736Z,56224
2017-06-05T09:19:30.417Z,55712
2017-06-05T09:20:30.420Z,53440
2017-06-05T09:21:30.420Z,51904
2017-06-05T09:22:30.451Z,49408
2017-06-05T09:23:30.498Z,41728
2017-06-05T09:24:30.097Z,39968
2017-06-05T09:25:30.400Z,50656
2017-06-05T09:26:30.715Z,50816
2017-06-05T09:27:30.098Z,47360
2017-06-05T09:28:30.399Z,52384
2017-06-05T09:29:30.082Z,51872
2017-06-05T09:30:30.427Z,41920
2017-06-05T09:31:30.710Z,46784
2017-06-05T09:32:30.390Z,46848
2017-06-05T09:33:30.399Z,55360
2017-06-05T09:34:30.703Z,57760
2017-06-05T09:35:30.710Z,68800
2017-06-05T09:36:30.415Z,75424
2017-06-05T09:37:30.384Z,63808
2017-06-05T09:38:30.268Z,60864
2017-06-05T09:39:30.691Z,59648
2017-06-05T09:40:30.057Z,51712
2017-06-05T09:41:30.057Z,47168
2017-06-05T09:42:29.739Z,40640
2017-06-05T09:43:30.070Z,43104
2017-06-05T09:44:30.366Z,46912
2017-06-05T09:45:30.361Z,56032
2017-06-05T09:46:30.674Z,62720
2017-06-05T09:47:30.047Z,64608
2017-06-05T09:48:30.676Z,70208
2017-06-05T09:49:30.380Z,70016
2017-06-05T09:50:30.681Z,80416
2017-06-05T09:51:30.052Z,77344
2017-06-05T09:52:30.367Z,72256
2017-06-05T09:53:29.730Z,86112
2017-06-05T09:54:30.355Z,91584
2017-06-05T09:55:30.365Z,72608
2017-06-05T09:56:30.759Z,87456
2017-06-05T09:57:29.736Z,82208
2017-06-05T09:58:30.359Z,77664
2017-06-05T09:59:30.360Z,73312
2017-06-05T10:00:30.364Z,71968
2017-06-05T10:01:30.362Z,72544
2017-06-05T10:02:30.729Z,74880
2017-06-05T10:03:30.680Z,78624
2017-06-05T10:04:30.366Z,86144
2017-06-05T10:05:30.367Z,88864
2017-06-05T10:06:30.374Z,89856
2017-06-05T10:07:30.118Z,88224
2017-06-05T10:08:30.060Z,85088
2017-06-05T10:09:30.067Z,82944
2017-06-05T10:10:30.115Z,83072
2017-06-05T10:11:30.389Z,85248
2017-06-05T10:12:30.384Z,84512
2017-06-05T10:13:30.074Z,88384
2017-06-05T10:14:30.074Z,91136
2017-06-05T10:15:30.704Z,92640
2017-06-05T10:16:30.709Z,93408
2017-06-05T10:17:30.395Z,91456
2017-06-05T10:18:30.410Z,89536
2017-06-05T10:19:30.412Z,88512
2017-06-05T10:20:30.725Z,87744
2017-06-05T10:21:30.726Z,87712
2017-06-05T10:22:30.405Z,88320
2017-06-05T10:23:30.444Z,87808
2017-06-05T10:24:29.801Z,89312
2017-06-05T10:25:30.446Z,89184
2017-06-05T10:26:30.113Z,88512
2017-06-05T10:27:30.740Z,88096
2017-06-05T10:28:30.115Z,87488
2017-06-05T10:29:30.427Z,88960
2017-06-05T10:30:30.117Z,92928
2017-06-05T10:31:30.445Z,98464
2017-06-05T10:32:30.763Z,103104
2017-06-05T10:33:30.446Z,103040
2017-06-05T10:34:30.144Z,101824
2017-06-05T10:35:30.457Z,96352
2017-06-05T10:36:30.472Z,87456
2017-06-05T10:37:29.862Z,76992
2017-06-05T10:38:30.780Z,70592
2017-06-05T10:39:30.798Z,66816
2017-06-05T10:40:30.186Z,67424
2017-06-05T10:41:30.476Z,75776
2017-06-05T10:42:30.161Z,85184
2017-06-05T10:43:30.475Z,94496
2017-06-05T10:44:30.166Z,102016
2017-06-05T10:45:30.485Z,104672
2017-06-05T10:46:30.491Z,101696
2017-06-05T10:47:30.496Z,94880
2017-06-05T10:48:30.183Z,87328
2017-06-05T10:49:30.184Z,83744
2017-06-05T10:50:30.502Z,79648
2017-06-05T10:51:30.515Z,79488
2017-06-05T10:52:30.517Z,83808
2017-06-05T10:53:30.529Z,90976
2017-06-05T10:54:30.516Z,101760
2017-06-05T10:55:30.573Z,108576
2017-06-05T10:56:30.528Z,111232
2017-06-05T10:57:30.533Z,109408
2017-06-05T10:58:30.876Z,106368
2017-06-05T10:59:30.905Z,100640
2017-06-05T11:00:30.225Z,95872
2017-06-05T11:01:29.914Z,91456
2017-06-05T11:02:30.553Z,90208
2017-06-05T11:03:30.239Z,87520
2017-06-05T11:04:30.560Z,84896
2017-06-05T11:05:30.558Z,82176
2017-06-05T11:06:30.262Z,87040
2017-06-05T11:07:30.565Z,91520
2017-06-05T11:08:30.573Z,100896
2017-06-05T11:09:30.577Z,112192
2017-06-05T11:10:30.261Z,123968
2017-06-05T11:11:29.994Z,134624
2017-06-05T11:12:30.588Z,134912
2017-06-05T11:13:30.592Z,127872
2017-06-05T11:14:30.282Z,114400
2017-06-05T11:15:30.922Z,102656
2017-06-05T11:16:30.919Z,87264
2017-06-05T11:17:30.303Z,71552
2017-06-05T11:18:30.293Z,60160
2017-06-05T11:19:30.304Z,14880
2017-06-05T11:20:30.732Z,64064
2017-06-05T11:21:30.311Z,76832
2017-06-05T11:22:30.685Z,87072
2017-06-05T11:23:30.623Z,112800
2017-06-05T11:24:30.626Z,132224
2017-06-05T11:25:30.947Z,140800
2017-06-05T11:26:30.322Z,136288
2017-06-05T11:27:30.009Z,119200
2017-06-05T11:28:30.650Z,100160
2017-06-05T11:29:30.958Z,81600
2017-06-05T11:30:30.651Z,46592
2017-06-05T11:31:30.968Z,48064
2017-06-05T11:32:30.978Z,44352
2017-06-05T11:33:30.347Z,51104
2017-06-05T11:34:30.353Z,63168
2017-06-05T11:35:30.357Z,76512
2017-06-05T11:36:30.360Z,88352
2017-06-05T11:37:30.678Z,99168
2017-06-05T11:38:30.994Z,107680
2017-06-05T11:39:30.677Z,107872
2017-06-05T11:40:31.001Z,100992
2017-06-05T11:41:30.703Z,92128
2017-06-05T11:42:31.010Z,78592
2017-06-05T11:43:30.383Z,71936
2017-06-05T11:44:30.395Z,65024
2017-06-05T11:45:30.712Z,65408
2017-06-05T11:46:31.028Z,67936
2017-06-05T11:47:31.041Z,72640
2017-06-05T11:48:30.771Z,76416
2017-06-05T11:49:30.407Z,81376
2017-06-05T11:50:31.039Z,86688
2017-06-05T11:51:30.727Z,90496
2017-06-05T11:52:30.427Z,95648
2017-06-05T11:53:30.745Z,96032
2017-06-05T11:54:30.748Z,98432
2017-06-05T11:55:31.059Z,103008
2017-06-05T11:56:31.071Z,99904
2017-06-05T11:57:30.763Z,96288
2017-06-05T11:58:31.132Z,93440
2017-06-05T11:59:31.094Z,87200
2017-06-05T12:00:30.775Z,82656
2017-06-05T12:01:30.773Z,80160
2017-06-05T12:02:30.146Z,80416
2017-06-05T12:03:30.463Z,83648
2017-06-05T12:04:30.472Z,87712
2017-06-05T12:05:30.790Z,91936
2017-06-05T12:06:31.108Z,95744
2017-06-05T12:07:30.796Z,98176
2017-06-05T12:08:30.175Z,97024
2017-06-05T12:09:30.809Z,89792
2017-06-05T12:10:31.125Z,81600
2017-06-05T12:11:31.139Z,74816
2017-06-05T12:12:30.195Z,71040
2017-06-05T12:13:30.826Z,69664
2017-06-05T12:14:31.185Z,74464
2017-06-05T12:15:30.829Z,85088
2017-06-05T12:16:30.836Z,99200
2017-06-05T12:17:31.154Z,113216
2017-06-05T12:18:30.537Z,120256
2017-06-05T12:19:31.165Z,119168
2017-06-05T12:20:30.855Z,114528
2017-06-05T12:21:30.545Z,101536
2017-06-05T12:22:30.752Z,85152
2017-06-05T12:23:30.558Z,70656
2017-06-05T12:24:30.869Z,59808
2017-06-05T12:25:30.877Z,54336
2017-06-05T12:26:30.576Z,55936
2017-06-05T12:27:30.889Z,65312
2017-06-05T12:28:31.211Z,80736
2017-06-05T12:29:30.898Z,14952
2017-06-05T12:30:30.901Z,16524
2017-06-05T12:31:30.905Z,105632
2017-06-05T12:32:30.933Z,90400
2017-06-05T12:33:30.912Z,14644
2017-06-05T12:34:31.254Z,59264
2017-06-05T12:35:30.918Z,80192
2017-06-05T12:36:31.238Z,68256
2017-06-05T12:37:30.925Z,64000
2017-06-05T12:38:30.936Z,48096
2017-06-05T12:39:30.937Z,11172
2017-06-05T12:40:30.631Z,11612
2017-06-05T12:41:30.649Z,11220
2017-06-05T12:42:30.945Z,13440
2017-06-05T12:43:30.950Z,39136
2017-06-05T12:44:30.646Z,71968
2017-06-05T12:45:30.322Z,75584
2017-06-05T12:46:30.982Z,88384
2017-06-05T12:47:30.662Z,98240
2017-06-05T12:48:30.338Z,104256
2017-06-05T12:49:30.970Z,107808
2017-06-05T12:50:30.653Z,50848
2017-06-05T12:51:30.656Z,23040
2017-06-05T12:52:30.661Z,87936
2017-06-05T12:53:30.973Z,78592
2017-06-05T12:54:31.342Z,70752
2017-06-05T12:55:30.985Z,65856
2017-06-05T12:56:30.988Z,66432
2017-06-05T12:57:31.301Z,73184
2017-06-05T12:58:31.310Z,83328
2017-06-05T12:59:30.682Z,88384
2017-06-05T13:00:30.369Z,27744
2017-06-05T13:01:30.891Z,16284
2017-06-05T13:02:30.692Z,14232
2017-06-05T13:03:31.329Z,13464
2017-06-05T13:04:31.017Z,14888
2017-06-05T13:05:30.700Z,30720
2017-06-05T13:06:31.016Z,68576
2017-06-05T13:07:31.016Z,91296
2017-06-05T13:08:31.049Z,94688
2017-06-05T13:09:31.023Z,100224
2017-06-05T13:10:31.335Z,98944
2017-06-05T13:11:31.033Z,97472
2017-06-05T13:12:31.345Z,17760
2017-06-05T13:13:30.717Z,12016
2017-06-05T13:14:31.348Z,12456
2017-06-05T13:15:31.043Z,13316
2017-06-05T13:16:31.044Z,16060
2017-06-05T13:17:31.039Z,14904
2017-06-05T13:18:30.412Z,14524
2017-06-05T13:19:31.042Z,14732
2017-06-05T13:20:30.761Z,17344
2017-06-05T13:21:31.050Z,23296
2017-06-05T13:22:31.368Z,31040
2017-06-05T13:23:31.050Z,78560
2017-06-05T13:24:30.727Z,38912